createdAt,value
2024-03-14T00:00:19.683Z,8.46
2024-03-14T00:02:46.746Z,8.50
2024-03-14T00:05:13.709Z,8.50
2024-03-14T00:07:40.202Z,8.51
2024-03-14T00:10:07.297Z,8.44
2024-03-14T00:12:34.166Z,8.41
2024-03-14T00:15:00.688Z,8.38
2024-03-14T00:17:27.913Z,8.36
2024-03-14T00:19:55.626Z,8.32
2024-03-14T00:22:23.010Z,8.30
2024-03-14T00:24:49.642Z,8.24
2024-03-14T00:27:16.159Z,8.25
2024-03-14T00:29:46.955Z,8.27
2024-03-14T00:32:14.804Z,8.26
2024-03-14T00:34:41.983Z,8.25
2024-03-14T00:37:08.462Z,8.23
2024-03-14T00:39:34.925Z,8.22
2024-03-14T00:42:01.543Z,8.19
2024-03-14T00:44:28.285Z,8.22
2024-03-14T00:46:55.225Z,8.27
2024-03-14T00:49:21.775Z,8.32
2024-03-14T00:51:48.194Z,8.41
2024-03-14T00:54:14.673Z,8.44
2024-03-14T00:56:44.892Z,8.49
2024-03-14T00:59:14.067Z,8.54
2024-03-14T01:01:43.458Z,8.58
2024-03-14T01:04:09.871Z,8.61
2024-03-14T01:06:36.335Z,8.63
2024-03-14T01:09:02.837Z,8.66
2024-03-14T01:11:29.722Z,8.64
2024-03-14T01:13:56.862Z,8.67
2024-03-14T01:16:23.774Z,8.69
2024-03-14T01:18:51.562Z,8.69
2024-03-14T01:21:18.261Z,8.68
2024-03-14T01:23:44.920Z,8.68
2024-03-14T01:26:11.357Z,8.73
2024-03-14T01:28:37.784Z,8.72
2024-03-14T01:31:04.227Z,8.75
2024-03-14T01:33:32.447Z,8.75
2024-03-14T01:36:01.898Z,8.78
2024-03-14T01:38:28.414Z,8.80
2024-03-14T01:40:54.901Z,8.87
2024-03-14T01:43:21.488Z,8.91
2024-03-14T01:45:47.960Z,8.93
2024-03-14T01:48:14.600Z,8.98
2024-03-14T01:50:41.505Z,9.00
2024-03-14T01:53:07.988Z,9.02
2024-03-14T01:55:34.410Z,9.05
2024-03-14T01:58:00.861Z,9.05
2024-03-14T02:00:34.501Z,9.07
2024-03-14T02:03:02.100Z,9.07
2024-03-14T02:05:32.972Z,9.07
2024-03-14T02:08:00.007Z,9.09
2024-03-14T02:10:26.874Z,9.13
2024-03-14T02:12:55.251Z,9.14
2024-03-14T02:15:24.746Z,9.16
2024-03-14T02:17:51.726Z,9.17
2024-03-14T02:20:18.207Z,9.17
2024-03-14T02:22:47.288Z,9.18
2024-03-14T02:25:17.066Z,9.20
2024-03-14T02:27:43.532Z,9.20
2024-03-14T02:30:10.277Z,9.22
2024-03-14T02:32:36.776Z,9.23
2024-03-14T02:35:03.921Z,9.24
2024-03-14T02:37:32.232Z,9.27
2024-03-14T02:39:59.209Z,9.27
2024-03-14T02:42:26.230Z,9.28
2024-03-14T02:44:52.871Z,9.28
2024-03-14T02:47:19.416Z,9.30
2024-03-14T02:49:45.829Z,9.33
2024-03-14T02:52:12.302Z,9.33
2024-03-14T02:54:38.857Z,9.32
2024-03-14T02:57:05.913Z,9.33
2024-03-14T02:59:32.680Z,9.33
2024-03-14T03:02:00.411Z,9.35
2024-03-14T03:04:31.817Z,9.33
2024-03-14T03:06:59.543Z,9.39
2024-03-14T03:09:26.475Z,9.40
2024-03-14T03:11:54.285Z,9.40
2024-03-14T03:14:22.442Z,9.40
2024-03-14T03:16:48.900Z,9.40
2024-03-14T03:19:15.290Z,9.39
2024-03-14T03:21:41.788Z,9.40
2024-03-14T03:24:13.632Z,9.42
2024-03-14T03:26:42.254Z,9.45
2024-03-14T03:29:08.807Z,9.43
2024-03-14T03:31:35.873Z,9.46
2024-03-14T03:34:03.014Z,9.46
2024-03-14T03:36:30.769Z,9.47
2024-03-14T03:39:01.460Z,9.46
2024-03-14T03:41:31.325Z,9.48
2024-03-14T03:43:58.280Z,9.49
2024-03-14T03:46:25.192Z,9.47
2024-03-14T03:48:52.706Z,9.49
2024-03-14T03:51:19.776Z,9.51
2024-03-14T03:53:46.586Z,9.54
2024-03-14T03:56:13.059Z,9.52
2024-03-14T03:58:40.087Z,9.51
2024-03-14T04:01:13.431Z,9.51
2024-03-14T04:03:43.116Z,9.48
2024-03-14T04:06:14.127Z,9.51
2024-03-14T04:08:41.092Z,9.52
2024-03-14T04:11:08.700Z,9.54
2024-03-14T04:13:35.308Z,9.51
2024-03-14T04:16:04.875Z,9.53
2024-03-14T04:18:31.816Z,9.54
2024-03-14T04:20:58.351Z,9.55
2024-03-14T04:23:28.102Z,9.54
2024-03-14T04:25:57.528Z,9.53
2024-03-14T04:28:27.214Z,9.54
2024-03-14T04:30:53.891Z,9.54
2024-03-14T04:33:20.598Z,9.54
2024-03-14T04:35:47.257Z,9.54
2024-03-14T04:38:14.056Z,9.56
2024-03-14T04:40:40.858Z,9.58
2024-03-14T04:43:08.678Z,9.57
2024-03-14T04:45:35.534Z,9.57
2024-03-14T04:48:05.768Z,9.59
2024-03-14T04:50:32.506Z,9.59
2024-03-14T04:53:09.188Z,9.60
2024-03-14T04:55:35.597Z,9.60
2024-03-14T04:58:02.009Z,9.58
2024-03-14T05:00:28.441Z,9.58
2024-03-14T05:03:05.997Z,9.56
2024-03-14T05:05:32.818Z,9.56
2024-03-14T05:07:59.435Z,9.53
2024-03-14T05:10:25.948Z,9.56
2024-03-14T05:12:52.339Z,9.55
2024-03-14T05:15:32.507Z,9.56
2024-03-14T05:23:42.645Z,9.57
2024-03-14T05:26:09.063Z,9.60
2024-03-14T05:28:36.870Z,9.60
2024-03-14T05:31:03.383Z,9.61
2024-03-14T05:33:30.067Z,9.63
2024-03-14T05:35:56.662Z,9.61
2024-03-14T05:38:23.114Z,9.67
2024-03-14T05:40:51.319Z,9.66
2024-03-14T05:43:21.029Z,9.67
2024-03-14T05:45:52.902Z,9.65
2024-03-14T05:48:27.740Z,9.69
2024-03-14T05:53:42.618Z,9.74
2024-03-14T05:56:15.753Z,9.73
2024-03-14T05:58:45.619Z,9.72
2024-03-14T06:01:13.335Z,9.72
2024-03-14T06:03:43.522Z,9.73
2024-03-14T06:06:10.883Z,9.75
2024-03-14T06:08:37.416Z,9.77
2024-03-14T06:11:04.015Z,9.74
2024-03-14T06:13:30.497Z,9.72
2024-03-14T06:15:58.641Z,9.73
2024-03-14T06:18:25.550Z,9.76
2024-03-14T06:20:52.113Z,9.76
2024-03-14T06:23:18.563Z,9.76
2024-03-14T06:25:45.047Z,9.77
2024-03-14T06:28:11.482Z,9.80
2024-03-14T06:30:37.975Z,9.81
2024-03-14T06:33:04.622Z,9.81
2024-03-14T06:35:31.190Z,9.83
2024-03-14T06:37:58.556Z,9.82
2024-03-14T06:40:25.234Z,9.80
2024-03-14T06:42:51.726Z,9.84
2024-03-14T06:45:18.257Z,9.90
2024-03-14T06:47:46.869Z,9.97
2024-03-14T06:50:13.934Z,10.00
2024-03-14T06:52:40.450Z,9.97
2024-03-14T06:55:11.238Z,10.00
2024-03-14T06:57:40.592Z,9.99
2024-03-14T07:00:13.469Z,9.96
2024-03-14T07:02:41.527Z,9.96
2024-03-14T07:05:09.223Z,9.92
2024-03-14T07:07:37.128Z,9.91
2024-03-14T07:10:04.316Z,9.92
2024-03-14T07:12:31.515Z,9.90
2024-03-14T07:14:58.072Z,9.84
2024-03-14T07:17:24.709Z,9.79
2024-03-14T07:19:51.182Z,9.72
2024-03-14T07:22:17.794Z,9.69
2024-03-14T07:24:44.984Z,9.69
2024-03-14T07:27:12.001Z,9.64
2024-03-14T07:29:38.481Z,9.65
2024-03-14T07:32:05.429Z,9.65
2024-03-14T07:34:32.396Z,9.62
2024-03-14T07:36:59.438Z,9.65
2024-03-14T07:39:28.694Z,9.64
2024-03-14T07:41:55.200Z,9.65
2024-03-14T07:44:31.675Z,9.62
2024-03-14T07:46:59.820Z,9.61
2024-03-14T07:49:29.955Z,9.60
2024-03-14T07:51:56.615Z,9.65
2024-03-14T07:54:24.196Z,9.64
2024-03-14T07:56:52.672Z,9.67
2024-03-14T07:59:20.656Z,9.71
2024-03-14T08:01:47.353Z,9.79
2024-03-14T08:04:15.039Z,9.84
2024-03-14T08:06:44.804Z,9.85
2024-03-14T08:09:13.324Z,9.93
2024-03-14T08:11:42.348Z,10.03
2024-03-14T08:14:08.974Z,10.17
2024-03-14T08:16:36.970Z,10.35
2024-03-14T08:19:03.532Z,10.42
2024-03-14T08:21:34.417Z,10.49
2024-03-14T08:24:11.281Z,10.45
2024-03-14T08:26:38.546Z,10.44
2024-03-14T08:29:04.979Z,10.48
2024-03-14T08:31:31.697Z,10.50
2024-03-14T08:33:59.960Z,10.44
2024-03-14T08:36:28.812Z,10.46
2024-03-14T08:38:56.031Z,10.56
2024-03-14T08:41:22.894Z,10.63
2024-03-14T08:43:49.616Z,10.67
2024-03-14T08:46:16.348Z,10.84
2024-03-14T08:48:44.078Z,10.90
2024-03-14T08:51:11.178Z,11.01
2024-03-14T08:53:56.150Z,11.30
2024-03-14T08:56:25.038Z,11.55
2024-03-14T08:58:58.199Z,11.55
2024-03-14T09:01:25.505Z,11.45
2024-03-14T09:03:52.432Z,11.48
2024-03-14T09:06:19.422Z,11.53
2024-03-14T09:08:45.983Z,11.57
2024-03-14T09:11:13.005Z,11.62
2024-03-14T09:13:39.868Z,11.73
2024-03-14T09:16:07.396Z,12.00
2024-03-14T09:18:34.107Z,12.06
2024-03-14T09:21:01.523Z,12.09
2024-03-14T09:23:30.067Z,12.02
2024-03-14T09:25:59.082Z,11.93
2024-03-14T09:28:28.101Z,11.83
2024-03-14T09:30:59.336Z,11.98
2024-03-14T09:33:27.468Z,12.07
2024-03-14T09:35:54.193Z,12.09
2024-03-14T09:38:20.652Z,12.06
2024-03-14T09:40:47.148Z,12.14
2024-03-14T09:43:16.610Z,12.25
2024-03-14T09:48:37.189Z,12.43
2024-03-14T09:51:08.314Z,12.56
2024-03-14T09:53:54.742Z,12.48
2024-03-14T09:56:22.156Z,12.38
2024-03-14T09:58:54.099Z,12.60
2024-03-14T10:01:22.010Z,12.51
2024-03-14T10:03:48.627Z,12.66
2024-03-14T10:06:22.506Z,12.62
2024-03-14T10:08:49.422Z,12.63
2024-03-14T10:11:16.315Z,12.63
2024-03-14T10:13:44.928Z,12.61
2024-03-14T10:16:12.749Z,12.67
2024-03-14T10:18:42.617Z,12.70
2024-03-14T10:21:12.267Z,12.68
2024-03-14T10:23:41.755Z,12.69
2024-03-14T10:26:13.538Z,12.80
2024-03-14T10:28:40.512Z,12.96
2024-03-14T10:31:07.491Z,13.23
2024-03-14T10:33:34.353Z,13.22
2024-03-14T10:36:01.598Z,13.34
2024-03-14T10:38:28.720Z,13.43
2024-03-14T10:40:59.719Z,13.80
2024-03-14T10:43:31.042Z,13.98
2024-03-14T10:45:58.984Z,14.17
2024-03-14T10:48:26.357Z,14.34
2024-03-14T10:50:57.960Z,14.47
2024-03-14T10:53:25.615Z,14.52
2024-03-14T10:55:53.032Z,14.58
2024-03-14T10:58:22.303Z,14.62
2024-03-14T11:00:50.967Z,14.73
2024-03-14T11:03:20.498Z,14.84
2024-03-14T11:05:51.737Z,14.78
2024-03-14T11:08:21.889Z,15.07
2024-03-14T11:10:49.606Z,15.07
2024-03-14T11:13:16.215Z,15.23
2024-03-14T11:15:43.846Z,15.05
2024-03-14T11:18:18.518Z,14.92
2024-03-14T11:20:47.964Z,14.93
2024-03-14T11:23:17.054Z,14.73
2024-03-14T11:25:47.502Z,15.10
2024-03-14T11:28:16.030Z,15.20
2024-03-14T11:30:52.542Z,14.92
2024-03-14T11:33:19.479Z,14.86
2024-03-14T11:35:46.423Z,14.78
2024-03-14T11:38:21.896Z,14.61
2024-03-14T11:41:15.000Z,14.94
2024-03-14T11:43:43.116Z,15.25
2024-03-14T11:46:11.777Z,14.98
2024-03-14T11:48:38.553Z,15.00
2024-03-14T11:51:05.328Z,15.03
2024-03-14T11:53:34.813Z,15.21
2024-03-14T11:56:07.479Z,15.11
2024-03-14T11:58:43.178Z,14.92
2024-03-14T12:01:17.260Z,15.07
2024-03-14T12:03:46.138Z,15.35
2024-03-14T12:06:18.371Z,15.60
2024-03-14T12:08:44.871Z,15.66
2024-03-14T12:11:11.559Z,15.62
2024-03-14T12:13:38.749Z,15.43
2024-03-14T12:16:05.954Z,15.24
2024-03-14T12:18:33.356Z,15.11
2024-03-14T12:21:01.790Z,15.06
2024-03-14T12:23:28.614Z,15.10
2024-03-14T12:25:56.867Z,15.18
2024-03-14T12:28:24.224Z,15.45
2024-03-14T12:31:01.458Z,15.69
2024-03-14T12:33:28.975Z,15.67
2024-03-14T12:35:56.141Z,15.59
2024-03-14T12:38:25.646Z,15.62
2024-03-14T12:40:59.211Z,15.37
2024-03-14T12:43:27.952Z,15.29
2024-03-14T12:45:54.513Z,15.35
2024-03-14T12:48:21.412Z,15.38
2024-03-14T12:50:48.005Z,15.39
2024-03-14T12:53:16.435Z,15.33
2024-03-14T12:55:50.881Z,15.54
2024-03-14T12:58:23.681Z,15.53
2024-03-14T13:00:53.812Z,15.67
2024-03-14T13:03:23.914Z,15.73
2024-03-14T13:06:00.074Z,15.79
2024-03-14T13:08:27.215Z,15.67
2024-03-14T13:11:07.589Z,15.74
2024-03-14T13:13:34.749Z,15.63
2024-03-14T13:16:16.978Z,15.65
2024-03-14T13:18:43.706Z,15.80
2024-03-14T13:21:12.842Z,15.81
2024-03-14T13:23:42.201Z,15.97
2024-03-14T13:26:11.467Z,16.23
2024-03-14T13:28:38.576Z,16.22
2024-03-14T13:31:05.028Z,16.15
2024-03-14T13:33:31.552Z,15.92
2024-03-14T13:35:58.073Z,15.81
2024-03-14T13:38:27.180Z,15.51
2024-03-14T13:40:53.638Z,15.51
2024-03-14T13:43:24.706Z,15.55
2024-03-14T13:45:52.550Z,15.61
2024-03-14T13:48:19.118Z,15.76
2024-03-14T13:50:45.745Z,15.92
2024-03-14T13:53:14.054Z,16.01
2024-03-14T13:55:44.589Z,16.08
2024-03-14T13:58:14.225Z,16.21
2024-03-14T14:00:47.866Z,16.26
2024-03-14T14:03:15.238Z,16.20
2024-03-14T14:05:41.852Z,16.17
2024-03-14T14:08:10.185Z,16.05
2024-03-14T14:10:36.791Z,16.02
2024-03-14T14:13:03.505Z,16.11
2024-03-14T14:15:30.795Z,16.15
2024-03-14T14:17:57.938Z,16.22
2024-03-14T14:20:24.976Z,16.36
2024-03-14T14:22:51.413Z,16.57
2024-03-14T14:25:17.846Z,16.58
2024-03-14T14:27:46.088Z,16.61
2024-03-14T14:30:20.786Z,16.36
2024-03-14T14:32:47.642Z,16.33
2024-03-14T14:35:14.808Z,16.35
2024-03-14T14:37:47.392Z,16.47
2024-03-14T14:40:13.866Z,16.67
2024-03-14T14:42:40.577Z,16.68
2024-03-14T14:45:07.206Z,16.67
2024-03-14T14:47:35.022Z,16.40
2024-03-14T14:50:01.469Z,16.33
2024-03-14T14:52:28.364Z,16.48
2024-03-14T14:54:55.440Z,17.23
2024-03-14T14:57:22.129Z,17.82
2024-03-14T14:59:48.990Z,17.75
2024-03-14T15:02:20.150Z,17.99
2024-03-14T15:04:47.412Z,18.07
2024-03-14T15:07:15.324Z,18.24
2024-03-14T15:09:41.884Z,17.72
2024-03-14T15:12:08.432Z,18.03
2024-03-14T15:14:34.901Z,17.85
2024-03-14T15:17:02.676Z,17.97
2024-03-14T15:19:32.535Z,17.77
2024-03-14T15:21:58.999Z,17.58
2024-03-14T15:24:28.320Z,17.21
2024-03-14T15:26:56.151Z,16.97
2024-03-14T15:29:22.739Z,16.96
2024-03-14T15:31:50.614Z,17.13
2024-03-14T15:34:18.561Z,17.16
2024-03-14T15:36:47.352Z,16.99
2024-03-14T15:39:13.939Z,16.60
2024-03-14T15:41:43.404Z,16.37
2024-03-14T15:44:10.934Z,16.31
2024-03-14T15:46:37.679Z,16.19
2024-03-14T15:49:07.247Z,16.10
2024-03-14T15:51:33.987Z,15.94
2024-03-14T15:54:00.919Z,15.80
2024-03-14T15:56:27.340Z,15.76
2024-03-14T15:58:54.461Z,15.71
2024-03-14T16:01:20.990Z,15.66
2024-03-14T16:03:49.804Z,15.56
2024-03-14T16:06:17.631Z,15.57
2024-03-14T16:08:51.505Z,15.55
2024-03-14T16:11:21.983Z,15.43
2024-03-14T16:13:48.710Z,15.46
2024-03-14T16:16:15.633Z,15.46
2024-03-14T16:18:44.625Z,15.49
2024-03-14T16:21:12.487Z,15.48
2024-03-14T16:23:38.972Z,15.38
2024-03-14T16:26:05.540Z,15.32
2024-03-14T16:28:33.055Z,15.18
2024-03-14T16:31:00.642Z,15.09
2024-03-14T16:33:27.176Z,15.02
2024-03-14T16:35:53.887Z,14.92
2024-03-14T16:38:20.363Z,14.87
2024-03-14T16:40:47.101Z,14.77
2024-03-14T16:43:13.565Z,14.70
2024-03-14T16:45:40.024Z,14.64
2024-03-14T16:48:06.754Z,14.60
2024-03-14T16:50:35.308Z,14.53
2024-03-14T16:53:01.976Z,14.48
2024-03-14T16:55:30.916Z,14.43
2024-03-14T16:58:01.367Z,14.36
2024-03-14T17:00:33.748Z,14.30
2024-03-14T17:03:01.027Z,14.22
2024-03-14T17:05:29.518Z,14.14
2024-03-14T17:07:56.264Z,14.05
2024-03-14T17:10:26.783Z,13.97
2024-03-14T17:12:55.130Z,13.84
2024-03-14T17:15:23.093Z,13.74
2024-03-14T17:17:49.752Z,13.68
2024-03-14T17:20:18.194Z,13.59
2024-03-14T17:22:50.077Z,13.54
2024-03-14T17:25:20.024Z,13.49
2024-03-14T17:27:46.563Z,13.41
2024-03-14T17:30:17.247Z,13.36
2024-03-14T17:32:44.627Z,13.30
2024-03-14T17:35:15.814Z,13.24
2024-03-14T17:37:45.416Z,13.17
2024-03-14T17:40:18.055Z,13.10
2024-03-14T17:42:45.129Z,13.00
2024-03-14T17:45:16.962Z,12.97
2024-03-14T17:47:48.561Z,12.90
2024-03-14T17:50:16.007Z,12.79
2024-03-14T17:52:44.154Z,12.75
2024-03-14T17:55:11.395Z,12.73
2024-03-14T17:57:42.664Z,12.74
2024-03-14T18:00:11.482Z,12.69
2024-03-14T18:02:42.329Z,12.68
2024-03-14T18:05:10.545Z,12.68
2024-03-14T18:07:37.608Z,12.66
2024-03-14T18:10:04.523Z,12.62
2024-03-14T18:12:31.005Z,12.56
2024-03-14T18:14:57.459Z,12.53
2024-03-14T18:17:25.743Z,12.47
2024-03-14T18:19:53.144Z,12.44
2024-03-14T18:22:20.520Z,12.41
2024-03-14T18:24:47.826Z,12.42
2024-03-14T18:27:14.611Z,12.40
2024-03-14T18:29:41.240Z,12.36
2024-03-14T18:32:13.765Z,12.30
2024-03-14T18:34:41.170Z,12.24
2024-03-14T18:37:07.929Z,12.17
2024-03-14T18:39:34.709Z,12.16
2024-03-14T18:42:06.175Z,12.13
2024-03-14T18:44:33.954Z,12.07
2024-03-14T18:47:00.765Z,12.05
2024-03-14T18:49:27.324Z,12.04
2024-03-14T18:51:54.974Z,12.03
2024-03-14T18:54:22.054Z,11.98
2024-03-14T18:56:51.012Z,12.00
2024-03-14T18:59:18.838Z,11.99
2024-03-14T19:01:45.318Z,11.98
2024-03-14T19:04:13.597Z,11.91
2024-03-14T19:06:40.092Z,11.85
2024-03-14T19:09:07.166Z,11.80
2024-03-14T19:11:33.996Z,11.74
2024-03-14T19:14:01.008Z,11.70
2024-03-14T19:16:28.028Z,11.67
2024-03-14T19:18:56.240Z,11.66
2024-03-14T19:21:22.843Z,11.62
2024-03-14T19:23:49.687Z,11.60
2024-03-14T19:26:17.216Z,11.62
2024-03-14T19:28:43.729Z,11.53
2024-03-14T19:31:11.817Z,11.49
2024-03-14T19:33:38.459Z,11.39
2024-03-14T19:36:05.066Z,11.40
2024-03-14T19:38:33.106Z,11.37
2024-03-14T19:40:59.559Z,11.37
2024-03-14T19:43:26.034Z,11.39
2024-03-14T19:45:52.608Z,11.38
2024-03-14T19:48:20.307Z,11.37
2024-03-14T19:50:47.847Z,11.37
2024-03-14T19:53:15.118Z,11.34
2024-03-14T19:55:41.673Z,11.31
2024-03-14T19:58:08.550Z,11.29
2024-03-14T20:00:35.099Z,11.31
2024-03-14T20:03:03.780Z,11.41
2024-03-14T20:05:32.959Z,11.53
2024-03-14T20:08:00.469Z,11.61
2024-03-14T20:10:27.913Z,11.67
2024-03-14T20:12:55.287Z,11.75
2024-03-14T20:15:25.731Z,11.77
2024-03-14T20:17:52.322Z,11.80
2024-03-14T20:20:18.956Z,11.83
2024-03-14T20:22:45.384Z,11.87
2024-03-14T20:25:13.440Z,11.86
2024-03-14T20:27:40.683Z,11.87
2024-03-14T20:30:13.777Z,11.86
2024-03-14T20:32:41.757Z,11.82
2024-03-14T20:35:08.976Z,11.79
2024-03-14T20:37:36.312Z,11.75
2024-03-14T20:40:03.193Z,11.72
2024-03-14T20:42:32.926Z,11.66
2024-03-14T20:45:03.207Z,11.67
2024-03-14T20:47:30.634Z,11.61
2024-03-14T20:49:57.837Z,11.59
2024-03-14T20:52:24.437Z,11.54
2024-03-14T20:54:56.842Z,11.47
2024-03-14T20:57:24.056Z,11.40
2024-03-14T20:59:52.247Z,11.38
2024-03-14T21:02:25.592Z,11.29
2024-03-14T21:04:52.447Z,11.21
2024-03-14T21:07:19.093Z,11.17
2024-03-14T21:09:52.553Z,11.11
2024-03-14T21:12:24.410Z,11.09
2024-03-14T21:14:51.449Z,11.07
2024-03-14T21:17:18.272Z,11.02
2024-03-14T21:19:48.444Z,10.96
2024-03-14T21:22:15.128Z,10.94
2024-03-14T21:24:43.465Z,10.93
2024-03-14T21:27:12.175Z,10.94
2024-03-14T21:29:39.795Z,10.88
2024-03-14T21:32:07.212Z,10.86
2024-03-14T21:34:35.186Z,10.85
2024-03-14T21:37:01.670Z,10.82
2024-03-14T21:39:29.313Z,10.79
2024-03-14T21:41:55.724Z,10.78
2024-03-14T21:44:24.325Z,10.79
2024-03-14T21:46:51.045Z,10.78
2024-03-14T21:49:17.960Z,10.75
2024-03-14T21:51:44.818Z,10.71
2024-03-14T21:54:13.374Z,10.67
2024-03-14T21:56:40.963Z,10.66
2024-03-14T21:59:08.096Z,10.66
2024-03-14T22:01:36.297Z,10.65
2024-03-14T22:04:02.953Z,10.65
2024-03-14T22:06:30.290Z,10.62
2024-03-14T22:08:57.325Z,10.62
2024-03-14T22:11:23.952Z,10.63
2024-03-14T22:13:50.492Z,10.61
2024-03-14T22:16:17.969Z,10.58
2024-03-14T22:18:44.688Z,10.53
2024-03-14T22:21:12.325Z,10.52
2024-03-14T22:23:38.932Z,10.45
2024-03-14T22:26:08.696Z,10.41
2024-03-14T22:28:37.801Z,10.36
2024-03-14T22:31:11.211Z,10.32
2024-03-14T22:33:40.599Z,10.27
2024-03-14T22:36:07.065Z,10.19
2024-03-14T22:38:34.585Z,10.17
2024-03-14T22:41:01.037Z,10.15
2024-03-14T22:43:28.383Z,10.17
2024-03-14T22:45:55.294Z,10.17
2024-03-14T22:48:21.873Z,10.19
2024-03-14T22:50:48.370Z,10.23
2024-03-14T22:53:14.868Z,10.24
2024-03-14T22:55:44.994Z,10.24
2024-03-14T22:58:14.174Z,10.23
2024-03-14T23:00:46.722Z,10.24
2024-03-14T23:03:16.541Z,10.26
2024-03-14T23:05:45.124Z,10.25
2024-03-14T23:08:17.632Z,10.27
2024-03-14T23:10:45.198Z,10.32
2024-03-14T23:13:18.014Z,10.33
2024-03-14T23:15:45.323Z,10.34
2024-03-14T23:18:12.367Z,10.35
2024-03-14T23:20:39.478Z,10.38
2024-03-14T23:23:06.246Z,10.44
2024-03-14T23:25:32.766Z,10.47
2024-03-14T23:28:00.060Z,10.48
2024-03-14T23:30:26.837Z,10.51
2024-03-14T23:32:53.895Z,10.54
2024-03-14T23:35:22.190Z,10.52
2024-03-14T23:37:49.175Z,10.55
2024-03-14T23:40:20.294Z,10.53
2024-03-14T23:42:47.960Z,10.50
2024-03-14T23:45:14.670Z,10.48
2024-03-14T23:47:41.510Z,10.45
2024-03-14T23:50:09.660Z,10.45
2024-03-14T23:52:36.252Z,10.42
2024-03-14T23:55:02.815Z,10.36
2024-03-14T23:57:29.327Z,10.39
2024-03-14T23:59:55.809Z,10.37
